This is the latest recevied weather packets stored in our database for station/object KC7RJK-2. If no packets are shown the sender has not sent any weather packets the latest 1 day(s).
| Time | Temp. | Humidity | Pressure | Rain* | Wind** | Luminosity | Snow |
|---|---|---|---|---|---|---|---|
| 1836274481 | 18.89° C | 70% | 1012.6 hPa | 0 mm | 1.34 m/s, 255° | - | - |
| 1836274330 | 18.89° C | 72% | 1012.8 hPa | 0 mm | 0.89 m/s, 261° | - | - |
| 1836273881 | 18.89° C | 69% | 1012.5 hPa | 0 mm | 0.89 m/s, 242° | - | - |
| 1778066410 | 9.44° C | 95% | 1019 hPa | 0 mm | 0.45 m/s, 201° | - | - |
| 1778065810 | 9.44° C | 95% | 1019 hPa | 0 mm | 1.34 m/s, 188° | - | - |
| 1778065213 | 9.44° C | 94% | 1018.9 hPa | 0 mm | 0.45 m/s, 192° | - | - |
| 1778064609 | 9.44° C | 94% | 1018.7 hPa | 0 mm | 1.34 m/s, 199° | - | - |
| 1778064009 | 9.44° C | 94% | 1018.6 hPa | 0 mm | 0.89 m/s, 196° | - | - |
| 1778063409 | 10° C | 94% | 1018.6 hPa | 0 mm | 0.89 m/s, 192° | - | - |
| 1778062810 | 10° C | 94% | 1018.5 hPa | 0 mm | 0 m/s | - | - |
| 1778062209 | 10° C | 94% | 1018.5 hPa | 0 mm | 0 m/s | - | - |
| 1778061611 | 10° C | 94% | 1018.4 hPa | 0 mm | 1.34 m/s, 192° | - | - |
| 1778061009 | 10° C | 94% | 1018.4 hPa | 0 mm | 0.89 m/s, 202° | - | - |
| 1778060409 | 10.56° C | 94% | 1018.3 hPa | 0 mm | 0.89 m/s, 186° | - | - |
| 1778059809 | 10.56° C | 93% | 1018.2 hPa | 0 mm | 0.45 m/s, 194° | - | - |
| 1778059208 | 10.56° C | 93% | 1018.1 hPa | 0 mm | 0.89 m/s, 199° | - | - |
| 1778058608 | 11.11° C | 93% | 1018.1 hPa | 0 mm | 0 m/s | - | - |
| 1778058008 | 11.11° C | 93% | 1018 hPa | 0 mm | 0.45 m/s, 233° | - | - |
| 1778057410 | 11.11° C | 93% | 1017.9 hPa | 0 mm | 0.45 m/s, 198° | - | - |
| 1778056811 | 11.67° C | 92% | 1017.8 hPa | 0 mm | 0 m/s | - | - |
| 1778056210 | 11.67° C | 92% | 1017.9 hPa | 0 mm | 0 m/s | - | - |
| 1778055609 | 12.22° C | 92% | 1017.8 hPa | 0 mm | 0 m/s | - | - |
| 1778055009 | 12.22° C | 92% | 1017.8 hPa | 0 mm | 0 m/s | - | - |
| 1778054409 | 12.78° C | 92% | 1017.8 hPa | 0 mm | 0 m/s | - | - |
| 1778053809 | 12.78° C | 93% | 1017.8 hPa | 0 mm | 0 m/s | - | - |
* Rain latest hour (hover to see other rain measurements)
** Current wind speed in m/s (hover to see current wind gust speed)